Time;durP1;ratioP1;P1;durP2;ratioP2;P2;SDS_P1;SDS_P2;PMS_P1;PMS_P2;Temp;Humidity;BMP_temperature;BMP_pressure;BME280_temperature;BME280_humidity;BME280_pressure;Samples;Min_cycle;Max_cycle;Signal;HPM_P1;HPM_P2
2021/12/29 05:04:56;;;;;;;;;;;19.90;43.10;;;;;;3895084;22;19922;-85
2021/12/29 05:08:26;;;;;;;;;;;19.90;43.70;;;;;;3893801;22;19915;-86
2021/12/29 05:09:56;;;;;;;;;;;19.90;43.10;;;;;;3893708;22;19919;-88
2021/12/29 05:11:28;;;;;;;;;;;19.90;43.10;;;;;;3893749;22;20347;-88
2021/12/29 05:13:00;;;;;;;;;;;19.90;43.10;;;;;;3893403;22;20002;-88
2021/12/29 05:14:31;;;;;;;;;;;19.90;43.10;;;;;;3893991;22;19915;-89
2021/12/29 05:16:03;;;;;;;;;;;19.90;43.10;;;;;;3892124;22;20416;-88
2021/12/29 05:17:34;;;;;;;;;;;19.90;43.10;;;;;;3893575;22;19915;-88
2021/12/29 05:19:05;;;;;;;;;;;19.90;43.10;;;;;;3893955;22;20344;-88
2021/12/29 05:20:38;;;;;;;;;;;19.90;43.10;;;;;;3893322;22;19921;-88
2021/12/29 05:22:10;;;;;;;;;;;19.90;43.10;;;;;;3893866;22;19919;-88
2021/12/29 05:23:41;;;;;;;;;;;19.90;43.10;;;;;;3893164;22;19938;-88
2021/12/29 05:25:13;;;;;;;;;;;19.90;43.10;;;;;;3893287;22;19945;-89
2021/12/29 05:26:45;;;;;;;;;;;19.90;43.10;;;;;;3893988;22;19968;-88
2021/12/29 05:28:17;;;;;;;;;;;20.00;43.10;;;;;;3893817;22;19919;-88
2021/12/29 05:29:49;;;;;;;;;;;19.90;43.10;;;;;;3892550;22;19924;-89
2021/12/29 05:31:20;;;;;;;;;;;19.90;43.10;;;;;;3892599;22;19919;-88
2021/12/29 05:32:52;;;;;;;;;;;19.90;43.10;;;;;;3893671;22;19915;-88
2021/12/29 05:34:24;;;;;;;;;;;19.90;43.10;;;;;;3893608;22;19915;-89
2021/12/29 05:35:57;;;;;;;;;;;20.00;43.10;;;;;;3893321;22;19919;-88
2021/12/29 05:37:28;;;;;;;;;;;19.90;43.10;;;;;;3893423;22;19922;-88
2021/12/29 05:39:00;;;;;;;;;;;20.00;43.10;;;;;;3894297;22;19918;-88
2021/12/29 05:40:31;;;;;;;;;;;19.90;43.10;;;;;;3892883;22;19919;-88
2021/12/29 05:42:03;;;;;;;;;;;20.00;43.20;;;;;;3893908;22;19915;-88
2021/12/29 05:43:35;;;;;;;;;;;20.00;43.10;;;;;;3893938;22;19965;-88
2021/12/29 05:45:07;;;;;;;;;;;19.90;43.10;;;;;;3892200;22;19915;-88
2021/12/29 05:46:39;;;;;;;;;;;20.00;43.20;;;;;;3893947;22;19916;-87
2021/12/29 05:48:11;;;;;;;;;;;19.90;43.10;;;;;;3894127;22;19915;-88
2021/12/29 05:49:42;;;;;;;;;;;20.00;43.20;;;;;;3893368;22;19984;-88
2021/12/29 05:51:15;;;;;;;;;;;20.00;43.20;;;;;;3893454;22;19915;-89
2021/12/29 05:52:47;;;;;;;;;;;19.90;43.10;;;;;;3893630;22;20349;-88
2021/12/29 05:54:18;;;;;;;;;;;20.00;43.20;;;;;;3893982;22;19961;-88
2021/12/29 05:55:50;;;;;;;;;;;20.00;43.20;;;;;;3892845;22;19973;-88
2021/12/29 05:57:22;;;;;;;;;;;20.00;43.10;;;;;;3893702;22;19915;-88
2021/12/29 05:58:56;;;;;;;;;;;20.00;43.10;;;;;;3893677;22;19916;-88
2021/12/29 06:00:28;;;;;;;;;;;20.00;43.10;;;;;;3891360;22;20292;-88
2021/12/29 06:01:59;;;;;;;;;;;20.00;43.10;;;;;;3893567;22;19921;-88
2021/12/29 06:03:31;;;;;;;;;;;20.00;43.10;;;;;;3893469;22;19922;-88
2021/12/29 06:05:03;;;;;;;;;;;20.00;43.20;;;;;;3892899;22;19923;-88
2021/12/29 06:06:36;;;;;;;;;;;20.00;43.10;;;;;;3893441;22;19976;-88
2021/12/29 06:08:09;;;;;;;;;;;20.00;43.10;;;;;;3894071;22;19919;-88
2021/12/29 06:09:40;;;;;;;;;;;20.00;43.10;;;;;;3894631;22;19919;-88
2021/12/29 06:11:12;;;;;;;;;;;20.00;43.10;;;;;;3893962;22;19915;-88
2021/12/29 06:12:44;;;;;;;;;;;19.90;43.10;;;;;;3895040;22;20181;-88
2021/12/29 06:14:15;;;;;;;;;;;20.00;43.10;;;;;;3894920;22;19969;-88
2021/12/29 06:15:47;;;;;;;;;;;20.00;43.10;;;;;;3893154;22;19969;-88
2021/12/29 06:17:19;;;;;;;;;;;20.00;43.10;;;;;;3894959;22;19962;-86
2021/12/29 06:18:50;;;;;;;;;;;20.00;43.20;;;;;;3895283;22;19929;-86
2021/12/29 06:20:22;;;;;;;;;;;20.00;43.10;;;;;;3894744;22;19915;-85
2021/12/29 06:21:55;;;;;;;;;;;20.00;43.10;;;;;;3894915;22;19916;-86
2021/12/29 06:23:26;;;;;;;;;;;20.00;43.10;;;;;;3895654;22;19915;-86
2021/12/29 06:24:58;;;;;;;;;;;20.00;43.10;;;;;;3894725;22;19968;-86
2021/12/29 06:26:30;;;;;;;;;;;20.00;43.10;;;;;;3895165;22;19968;-85
2021/12/29 06:28:01;;;;;;;;;;;20.00;43.10;;;;;;3894615;22;19921;-86
2021/12/29 06:29:33;;;;;;;;;;;20.00;43.10;;;;;;3895117;22;20296;-85
2021/12/29 06:31:05;;;;;;;;;;;20.00;43.10;;;;;;3893534;22;19915;-86
2021/12/29 06:32:36;;;;;;;;;;;20.00;43.10;;;;;;3895026;22;19919;-87
2021/12/29 06:34:08;;;;;;;;;;;20.00;43.10;;;;;;3895565;22;19915;-87
2021/12/29 06:35:40;;;;;;;;;;;20.00;43.10;;;;;;3894853;22;19976;-87
2021/12/29 06:37:13;;;;;;;;;;;20.00;43.10;;;;;;3895912;22;19914;-86
2021/12/29 06:38:44;;;;;;;;;;;20.00;43.10;;;;;;3895357;22;19947;-86
2021/12/29 06:40:16;;;;;;;;;;;20.00;43.10;;;;;;3894837;22;19915;-85
2021/12/29 06:41:48;;;;;;;;;;;20.00;43.10;;;;;;3895628;22;19914;-86
2021/12/29 06:43:19;;;;;;;;;;;20.00;43.10;;;;;;3894606;22;19915;-86
2021/12/29 06:44:51;;;;;;;;;;;20.00;43.10;;;;;;3894582;22;19919;-86
2021/12/29 06:46:23;;;;;;;;;;;20.00;43.70;;;;;;3894493;22;19916;-85
2021/12/29 06:47:54;;;;;;;;;;;20.00;43.20;;;;;;3895068;22;20245;-86
2021/12/29 06:49:25;;;;;;;;;;;20.00;43.10;;;;;;3895198;22;19915;-86
2021/12/29 06:50:57;;;;;;;;;;;20.00;43.10;;;;;;3894294;22;19956;-86
2021/12/29 06:52:30;;;;;;;;;;;20.00;43.10;;;;;;3895329;22;19946;-86
2021/12/29 06:54:01;;;;;;;;;;;20.00;43.10;;;;;;3894889;22;20296;-86
2021/12/29 06:55:33;;;;;;;;;;;20.00;43.10;;;;;;3894890;22;19964;-86
2021/12/29 06:57:05;;;;;;;;;;;20.00;43.10;;;;;;3894746;22;19915;-86
2021/12/29 06:58:36;;;;;;;;;;;20.00;43.80;;;;;;3894963;22;19976;-86
2021/12/29 07:00:08;;;;;;;;;;;20.00;43.10;;;;;;3893486;22;19978;-86
2021/12/29 07:01:39;;;;;;;;;;;20.00;43.10;;;;;;3895093;22;19915;-86
2021/12/29 07:03:11;;;;;;;;;;;20.00;43.10;;;;;;3895044;22;20025;-86
2021/12/29 07:04:42;;;;;;;;;;;20.00;43.10;;;;;;3894226;22;20333;-86
2021/12/29 07:06:17;;;;;;;;;;;20.00;43.10;;;;;;3895860;22;19919;-86
2021/12/29 07:07:52;;;;;;;;;;;20.00;43.10;;;;;;3894446;22;19915;-86
2021/12/29 07:09:24;;;;;;;;;;;20.00;43.10;;;;;;3894278;22;19922;-86
2021/12/29 07:10:55;;;;;;;;;;;20.00;43.10;;;;;;3894566;22;20234;-86
2021/12/29 07:12:27;;;;;;;;;;;20.00;43.70;;;;;;3894914;22;19968;-86
2021/12/29 07:14:02;;;;;;;;;;;20.00;43.10;;;;;;3894849;22;19919;-87
2021/12/29 07:15:34;;;;;;;;;;;20.00;43.10;;;;;;3893653;22;19923;-85
2021/12/29 07:17:06;;;;;;;;;;;20.00;43.10;;;;;;3895035;22;20515;-87
2021/12/29 07:18:37;;;;;;;;;;;20.00;43.20;;;;;;3895156;22;19942;-87
2021/12/29 07:20:09;;;;;;;;;;;20.00;43.10;;;;;;3893477;22;20013;-86
2021/12/29 07:21:41;;;;;;;;;;;20.00;43.20;;;;;;3894926;22;19921;-86
2021/12/29 07:23:14;;;;;;;;;;;20.00;43.20;;;;;;3894844;22;19915;-86
2021/12/29 07:24:45;;;;;;;;;;;20.00;43.20;;;;;;3893910;22;19937;-86
2021/12/29 07:26:17;;;;;;;;;;;20.00;43.10;;;;;;3895606;22;19958;-86
2021/12/29 07:27:49;;;;;;;;;;;20.00;43.20;;;;;;3894698;22;19973;-86
2021/12/29 07:29:20;;;;;;;;;;;20.00;43.10;;;;;;3894649;22;20354;-86
2021/12/29 07:30:52;;;;;;;;;;;20.00;43.10;;;;;;3893052;22;19922;-86
2021/12/29 07:32:24;;;;;;;;;;;20.10;43.20;;;;;;3895451;22;20253;-86
2021/12/29 07:33:55;;;;;;;;;;;20.10;43.20;;;;;;3895359;22;19939;-86
2021/12/29 07:35:27;;;;;;;;;;;20.00;43.80;;;;;;3893677;22;19915;-86
2021/12/29 07:36:59;;;;;;;;;;;20.00;43.20;;;;;;3895346;22;19972;-86
2021/12/29 07:38:32;;;;;;;;;;;20.00;43.20;;;;;;3893945;22;19915;-88
2021/12/29 07:40:07;;;;;;;;;;;20.00;43.20;;;;;;3893629;22;19990;-87
2021/12/29 07:41:42;;;;;;;;;;;20.00;43.10;;;;;;3893533;22;19919;-85
2021/12/29 07:43:13;;;;;;;;;;;20.00;43.20;;;;;;3894014;22;20378;-87
2021/12/29 07:44:47;;;;;;;;;;;20.00;43.20;;;;;;3894154;22;19941;-87
2021/12/29 07:46:32;;;;;;;;;;;20.00;43.20;;;;;;3892875;22;19998;-87
2021/12/29 07:48:05;;;;;;;;;;;20.00;43.80;;;;;;3894536;22;19915;-84
2021/12/29 07:49:36;;;;;;;;;;;20.00;43.10;;;;;;3893715;22;19997;-84
2021/12/29 07:51:09;;;;;;;;;;;20.00;43.10;;;;;;3893142;22;19930;-85
2021/12/29 07:52:41;;;;;;;;;;;20.10;43.20;;;;;;3894240;22;19919;-86
2021/12/29 07:54:14;;;;;;;;;;;20.10;43.20;;;;;;3893219;22;19919;-86
2021/12/29 07:55:46;;;;;;;;;;;20.00;43.20;;;;;;3893235;22;19946;-86
2021/12/29 07:57:17;;;;;;;;;;;20.10;43.20;;;;;;3894010;22;19919;-87
2021/12/29 07:58:49;;;;;;;;;;;20.00;43.20;;;;;;3894004;22;20013;-87
2021/12/29 08:00:20;;;;;;;;;;;20.10;43.20;;;;;;3892902;22;19919;-86
2021/12/29 08:01:52;;;;;;;;;;;20.00;43.20;;;;;;3893374;22;19964;-84
2021/12/29 08:03:24;;;;;;;;;;;20.10;43.20;;;;;;3893417;22;19915;-87
2021/12/29 08:04:58;;;;;;;;;;;20.00;43.20;;;;;;3893126;22;19915;-86
2021/12/29 08:06:29;;;;;;;;;;;20.00;43.20;;;;;;3893846;22;19915;-87
2021/12/29 08:08:05;;;;;;;;;;;20.00;43.20;;;;;;3893820;22;19947;-86
2021/12/29 08:09:38;;;;;;;;;;;20.00;43.20;;;;;;3894034;22;19994;-86
2021/12/29 08:11:10;;;;;;;;;;;20.00;43.20;;;;;;3893035;22;20346;-86
2021/12/29 08:12:42;;;;;;;;;;;20.10;43.20;;;;;;3893147;22;19945;-86
2021/12/29 08:14:13;;;;;;;;;;;20.10;43.20;;;;;;3893484;22;19915;-85
2021/12/29 08:15:45;;;;;;;;;;;20.10;43.20;;;;;;3892424;22;19919;-86
2021/12/29 08:17:16;;;;;;;;;;;20.10;43.20;;;;;;3893177;22;19946;-86
2021/12/29 08:18:48;;;;;;;;;;;20.00;43.10;;;;;;3893430;22;19916;-86
2021/12/29 08:20:21;;;;;;;;;;;20.10;43.20;;;;;;3893087;22;20329;-87
2021/12/29 08:21:53;;;;;;;;;;;20.00;43.10;;;;;;3893339;22;19946;-86
2021/12/29 08:23:26;;;;;;;;;;;20.10;43.20;;;;;;3893416;22;20261;-85
2021/12/29 08:24:59;;;;;;;;;;;20.10;43.20;;;;;;3893361;22;19946;-85
2021/12/29 08:26:31;;;;;;;;;;;20.10;43.20;;;;;;3893586;22;19919;-86
2021/12/29 08:28:02;;;;;;;;;;;20.10;43.20;;;;;;3893090;22;19919;-86
2021/12/29 08:29:34;;;;;;;;;;;20.10;43.20;;;;;;3894014;22;19922;-85
2021/12/29 08:31:06;;;;;;;;;;;20.10;43.20;;;;;;3891978;22;20330;-87
2021/12/29 08:32:37;;;;;;;;;;;20.10;43.20;;;;;;3893331;22;19947;-86
2021/12/29 08:34:09;;;;;;;;;;;20.00;43.10;;;;;;3893007;22;19915;-86
2021/12/29 08:35:41;;;;;;;;;;;20.00;43.10;;;;;;3893824;22;19916;-86
2021/12/29 08:37:12;;;;;;;;;;;20.10;43.20;;;;;;3893659;22;19969;-85
2021/12/29 08:38:44;;;;;;;;;;;20.10;43.20;;;;;;3893736;22;20292;-87
2021/12/29 08:40:17;;;;;;;;;;;20.10;43.20;;;;;;3893219;22;19919;-86
2021/12/29 08:41:49;;;;;;;;;;;20.10;43.20;;;;;;3893275;22;19945;-85
2021/12/29 08:43:20;;;;;;;;;;;20.10;43.20;;;;;;3893066;22;19964;-85
2021/12/29 08:44:52;;;;;;;;;;;20.10;43.20;;;;;;3892724;22;19949;-86
2021/12/29 08:46:24;;;;;;;;;;;20.10;43.20;;;;;;3893011;22;19922;-86
2021/12/29 08:47:58;;;;;;;;;;;20.10;43.20;;;;;;3893087;22;19981;-86
2021/12/29 08:49:31;;;;;;;;;;;20.10;43.20;;;;;;3893392;22;20352;-87
2021/12/29 08:51:03;;;;;;;;;;;20.10;43.20;;;;;;3893116;22;19923;-84
2021/12/29 08:52:35;;;;;;;;;;;20.10;43.20;;;;;;3893504;22;20112;-86
2021/12/29 08:54:07;;;;;;;;;;;20.10;43.20;;;;;;3893092;22;19915;-85
2021/12/29 08:55:46;;;;;;;;;;;20.10;43.20;;;;;;3893195;22;19915;-86
2021/12/29 08:57:18;;;;;;;;;;;20.10;43.20;;;;;;3893599;22;19922;-86
2021/12/29 08:58:52;;;;;;;;;;;20.10;43.20;;;;;;3893038;22;20357;-86
2021/12/29 09:00:23;;;;;;;;;;;20.10;43.20;;;;;;3892321;22;19916;-84
2021/12/29 09:01:55;;;;;;;;;;;20.10;43.20;;;;;;3893550;22;19915;-87
2021/12/29 09:03:27;;;;;;;;;;;20.10;43.20;;;;;;3893077;22;19919;-86
2021/12/29 09:04:58;;;;;;;;;;;20.10;43.20;;;;;;3892685;22;20330;-86
2021/12/29 09:06:30;;;;;;;;;;;20.10;43.20;;;;;;3893910;22;19922;-85
2021/12/29 09:08:02;;;;;;;;;;;20.10;43.20;;;;;;3893091;22;19923;-85
2021/12/29 09:09:33;;;;;;;;;;;20.10;43.20;;;;;;3893534;22;19915;-87
2021/12/29 09:11:06;;;;;;;;;;;20.10;43.20;;;;;;3892409;22;19923;-86
2021/12/29 09:12:38;;;;;;;;;;;20.10;43.20;;;;;;3893297;22;19981;-85
2021/12/29 09:14:10;;;;;;;;;;;20.10;43.20;;;;;;3893066;22;19919;-86
2021/12/29 09:15:41;;;;;;;;;;;20.10;43.20;;;;;;3891917;22;19915;-86
2021/12/29 09:17:13;;;;;;;;;;;20.10;43.20;;;;;;3893901;22;19919;-86
2021/12/29 09:18:45;;;;;;;;;;;20.10;43.20;;;;;;3892790;22;19915;-85
2021/12/29 09:20:25;;;;;;;;;;;20.10;43.20;;;;;;3892482;22;19965;-86
2021/12/29 09:21:57;;;;;;;;;;;20.10;43.20;;;;;;3893756;22;19915;-85
2021/12/29 09:23:28;;;;;;;;;;;20.10;43.20;;;;;;3892908;22;19918;-87
2021/12/29 09:25:00;;;;;;;;;;;20.10;43.20;;;;;;3892486;22;19919;-86
2021/12/29 09:26:33;;;;;;;;;;;20.10;43.30;;;;;;3893653;22;19957;-86
2021/12/29 09:28:07;;;;;;;;;;;20.10;43.20;;;;;;3893285;22;19915;-86
2021/12/29 09:29:39;;;;;;;;;;;20.10;43.20;;;;;;3893096;22;20326;-86
2021/12/29 09:31:10;;;;;;;;;;;20.10;43.20;;;;;;3891079;22;19945;-87
2021/12/29 09:32:42;;;;;;;;;;;20.10;43.30;;;;;;3894102;22;19969;-86
2021/12/29 09:34:13;;;;;;;;;;;20.20;43.30;;;;;;3893027;22;19934;-85
2021/12/29 09:35:47;;;;;;;;;;;20.10;43.20;;;;;;3892680;22;19915;-86
2021/12/29 09:37:18;;;;;;;;;;;20.20;43.30;;;;;;3893333;22;20280;-87
2021/12/29 09:38:50;;;;;;;;;;;20.10;43.20;;;;;;3893448;22;19915;-86
2021/12/29 09:40:22;;;;;;;;;;;20.20;43.30;;;;;;3892750;22;19937;-85
2021/12/29 09:41:55;;;;;;;;;;;20.20;43.30;;;;;;3893231;22;19919;-86
2021/12/29 09:43:27;;;;;;;;;;;20.10;43.20;;;;;;3893080;22;20245;-86
2021/12/29 09:44:58;;;;;;;;;;;20.20;43.30;;;;;;3895021;22;20348;-85
2021/12/29 09:46:30;;;;;;;;;;;20.10;43.20;;;;;;3897706;22;20346;-85
2021/12/29 09:48:02;;;;;;;;;;;20.20;43.30;;;;;;3897755;22;19915;-85
2021/12/29 09:49:33;;;;;;;;;;;20.20;43.30;;;;;;3898490;22;19925;-85
2021/12/29 09:51:06;;;;;;;;;;;20.20;43.30;;;;;;3897028;22;19919;-85
2021/12/29 09:52:37;;;;;;;;;;;20.10;43.20;;;;;;3898475;22;19915;-85
2021/12/29 09:54:09;;;;;;;;;;;20.10;43.20;;;;;;3898699;22;19919;-85
2021/12/29 09:55:40;;;;;;;;;;;20.10;43.20;;;;;;3896963;22;19915;-85
2021/12/29 09:57:14;;;;;;;;;;;20.20;43.30;;;;;;3895854;22;19915;-87
2021/12/29 09:58:45;;;;;;;;;;;20.10;43.20;;;;;;3893338;22;19916;-87
2021/12/29 10:00:20;;;;;;;;;;;20.10;43.20;;;;;;3891332;22;19915;-86
2021/12/29 10:01:52;;;;;;;;;;;20.20;43.30;;;;;;3892700;22;19965;-87
2021/12/29 10:03:24;;;;;;;;;;;20.20;43.30;;;;;;3891794;22;19919;-87
2021/12/29 10:04:58;;;;;;;;;;;20.10;43.30;;;;;;3893130;22;19915;-87
2021/12/29 10:06:30;;;;;;;;;;;20.20;43.30;;;;;;3892604;22;19915;-86
2021/12/29 10:08:02;;;;;;;;;;;20.20;43.30;;;;;;3893148;22;19915;-86
2021/12/29 10:09:34;;;;;;;;;;;20.10;43.30;;;;;;3893268;22;19925;-87
2021/12/29 10:11:06;;;;;;;;;;;20.10;43.30;;;;;;3892580;22;19919;-87
2021/12/29 10:12:43;;;;;;;;;;;20.20;43.40;;;;;;3893081;22;19915;-87
2021/12/29 10:14:15;;;;;;;;;;;20.10;43.20;;;;;;3892644;22;20296;-87
2021/12/29 10:16:27;;;;;;;;;;;20.10;43.20;;;;;;3896326;22;19915;-87
2021/12/29 10:18:03;;;;;;;;;;;20.10;43.20;;;;;;3892199;22;19950;-87
2021/12/29 10:19:35;;;;;;;;;;;20.20;43.30;;;;;;3893294;22;19925;-86
2021/12/29 10:21:08;;;;;;;;;;;20.10;43.20;;;;;;3892242;22;20304;-86
2021/12/29 10:22:40;;;;;;;;;;;20.20;43.30;;;;;;3892845;22;19915;-86
2021/12/29 10:24:13;;;;;;;;;;;20.20;43.30;;;;;;3892618;22;19915;-86
2021/12/29 10:25:45;;;;;;;;;;;20.10;43.30;;;;;;3892888;22;19923;-87
2021/12/29 10:27:18;;;;;;;;;;;20.20;43.30;;;;;;3892864;22;19969;-85
2021/12/29 10:28:51;;;;;;;;;;;20.20;43.30;;;;;;3892768;22;19915;-86
2021/12/29 10:30:23;;;;;;;;;;;20.20;43.30;;;;;;3891551;22;20384;-86
2021/12/29 10:31:57;;;;;;;;;;;20.20;43.30;;;;;;3893165;22;19949;-86
2021/12/29 10:33:32;;;;;;;;;;;20.20;43.30;;;;;;3892100;22;20260;-87
2021/12/29 10:35:04;;;;;;;;;;;20.10;43.20;;;;;;3892876;22;19927;-86
2021/12/29 10:36:37;;;;;;;;;;;20.10;43.30;;;;;;3893329;22;19915;-86
2021/12/29 10:38:10;;;;;;;;;;;20.20;43.30;;;;;;3893092;22;19919;-84
2021/12/29 10:39:42;;;;;;;;;;;20.10;43.30;;;;;;3893238;22;19915;-85
2021/12/29 10:41:14;;;;;;;;;;;20.20;43.40;;;;;;3893180;22;19926;-86
2021/12/29 10:42:52;;;;;;;;;;;20.20;43.30;;;;;;3892691;22;19945;-86
2021/12/29 10:44:26;;;;;;;;;;;20.10;43.30;;;;;;3892821;22;19919;-86
2021/12/29 10:45:59;;;;;;;;;;;20.10;43.20;;;;;;3891739;22;19915;-85
2021/12/29 10:47:31;;;;;;;;;;;20.20;43.40;;;;;;3892638;22;19950;-86
2021/12/29 10:49:04;;;;;;;;;;;20.20;44.00;;;;;;3893020;22;20235;-86
2021/12/29 10:50:35;;;;;;;;;;;20.20;43.30;;;;;;3892756;22;19915;-87
2021/12/29 10:52:07;;;;;;;;;;;20.20;43.30;;;;;;3893033;22;20296;-86
2021/12/29 10:53:39;;;;;;;;;;;20.20;43.30;;;;;;3892038;22;20431;-85
2021/12/29 10:55:11;;;;;;;;;;;20.20;43.30;;;;;;3893431;22;19937;-86
2021/12/29 10:56:43;;;;;;;;;;;20.20;43.30;;;;;;3894562;22;19915;-87
2021/12/29 10:58:15;;;;;;;;;;;20.10;43.30;;;;;;3894050;22;19965;-85
2021/12/29 10:59:51;;;;;;;;;;;20.20;43.40;;;;;;3893581;22;19945;-85
2021/12/29 11:01:23;;;;;;;;;;;20.20;43.30;;;;;;3893729;22;19987;-86
2021/12/29 11:02:57;;;;;;;;;;;20.20;43.30;;;;;;3893505;22;19969;-85
2021/12/29 17:04:43;;;;;;;;;;;20.50;43.70;;;;;;3895294;22;19926;-85
2021/12/29 17:06:15;;;;;;;;;;;20.50;43.70;;;;;;3895495;22;19919;-86
2021/12/29 17:07:47;;;;;;;;;;;20.50;43.70;;;;;;3897160;22;20380;-86
2021/12/29 17:09:18;;;;;;;;;;;20.50;43.70;;;;;;3896377;22;19915;-85
2021/12/29 17:10:52;;;;;;;;;;;20.50;43.90;;;;;;3895988;22;19945;-86
2021/12/29 17:12:29;;;;;;;;;;;20.50;44.30;;;;;;3896516;22;19922;-86
2021/12/29 17:14:01;;;;;;;;;;;20.50;43.70;;;;;;3897043;22;20781;-85
2021/12/29 17:15:32;;;;;;;;;;;20.50;43.70;;;;;;3894591;22;19915;-86
2021/12/29 17:17:04;;;;;;;;;;;20.50;43.70;;;;;;3896438;22;19915;-85
2021/12/29 17:18:36;;;;;;;;;;;20.50;43.70;;;;;;3896461;22;19915;-86
2021/12/29 17:20:10;;;;;;;;;;;20.50;43.70;;;;;;3896882;22;19915;-85
2021/12/29 17:21:42;;;;;;;;;;;20.50;43.70;;;;;;3898294;22;19938;-85
2021/12/29 17:23:14;;;;;;;;;;;20.50;43.70;;;;;;3898210;22;19914;-84
2021/12/29 17:24:47;;;;;;;;;;;20.50;43.70;;;;;;3898857;22;19922;-85
2021/12/29 17:26:18;;;;;;;;;;;20.50;43.70;;;;;;3899622;22;20007;-85
2021/12/29 17:27:50;;;;;;;;;;;20.50;43.70;;;;;;3897861;22;19915;-85
2021/12/29 17:29:22;;;;;;;;;;;20.50;43.70;;;;;;3898861;22;19941;-85
2021/12/29 17:30:57;;;;;;;;;;;20.50;43.70;;;;;;3896478;22;19993;-85
2021/12/29 17:32:28;;;;;;;;;;;20.50;43.70;;;;;;3898506;22;19960;-85
2021/12/29 17:34:00;;;;;;;;;;;20.50;43.70;;;;;;3899260;22;19915;-85
2021/12/29 17:35:33;;;;;;;;;;;20.50;43.60;;;;;;3897413;22;19919;-84
2021/12/29 17:37:07;;;;;;;;;;;20.50;43.70;;;;;;3899431;22;19968;-85
2021/12/29 17:38:39;;;;;;;;;;;20.50;43.70;;;;;;3897747;22;19945;-85
2021/12/29 17:40:11;;;;;;;;;;;20.50;43.70;;;;;;3899062;22;19915;-85
2021/12/29 17:41:43;;;;;;;;;;;20.50;43.70;;;;;;3898710;22;19939;-85
2021/12/29 17:43:15;;;;;;;;;;;20.50;43.70;;;;;;3899049;22;20345;-84
2021/12/29 17:44:46;;;;;;;;;;;20.50;43.70;;;;;;3898602;22;19915;-84
2021/12/29 17:46:20;;;;;;;;;;;20.50;43.70;;;;;;3896536;22;19919;-85
2021/12/29 17:47:52;;;;;;;;;;;20.50;43.70;;;;;;3898960;22;19915;-85
2021/12/29 17:49:23;;;;;;;;;;;20.50;44.30;;;;;;3897798;22;19915;-85
2021/12/29 17:50:56;;;;;;;;;;;20.50;43.70;;;;;;3897204;22;19918;-84
2021/12/29 17:52:28;;;;;;;;;;;20.50;43.70;;;;;;3898756;22;19915;-85
2021/12/29 17:54:00;;;;;;;;;;;20.50;43.70;;;;;;3897676;22;19921;-85
2021/12/29 17:55:32;;;;;;;;;;;20.50;43.70;;;;;;3898645;22;20317;-85
2021/12/29 17:57:03;;;;;;;;;;;20.50;43.70;;;;;;3897546;22;19915;-85
2021/12/29 17:58:38;;;;;;;;;;;20.50;43.70;;;;;;3898352;22;19915;-84
2021/12/29 18:00:10;;;;;;;;;;;20.50;44.30;;;;;;3897528;22;19951;-84
2021/12/29 18:01:42;;;;;;;;;;;20.50;43.70;;;;;;3897905;22;19919;-85
2021/12/29 18:03:14;;;;;;;;;;;20.50;43.70;;;;;;3899224;22;19915;-85
2021/12/29 18:04:45;;;;;;;;;;;20.50;43.70;;;;;;3898310;22;19966;-84
2021/12/29 18:06:19;;;;;;;;;;;20.60;44.40;;;;;;3900326;22;20395;-84
2021/12/29 18:07:50;;;;;;;;;;;20.50;43.70;;;;;;3899654;22;19953;-85
2021/12/29 18:09:22;;;;;;;;;;;20.60;44.30;;;;;;3900038;22;19919;-85
2021/12/29 18:10:54;;;;;;;;;;;20.50;43.70;;;;;;3898264;22;20164;-86
2021/12/29 18:12:26;;;;;;;;;;;20.50;43.70;;;;;;3900464;22;19986;-85
2021/12/29 18:13:57;;;;;;;;;;;20.50;43.70;;;;;;3899898;22;19906;-85
2021/12/29 18:15:29;;;;;;;;;;;20.50;43.70;;;;;;3898176;22;19915;-84
2021/12/29 18:17:01;;;;;;;;;;;20.50;43.70;;;;;;3900440;22;19915;-85
2021/12/29 18:18:32;;;;;;;;;;;20.60;43.80;;;;;;3898982;22;20294;-83
2021/12/29 18:20:05;;;;;;;;;;;20.50;43.70;;;;;;3900014;22;19919;-85
2021/12/29 18:21:38;;;;;;;;;;;20.50;43.70;;;;;;3900758;22;20163;-85
2021/12/29 18:23:09;;;;;;;;;;;20.60;43.80;;;;;;3899241;22;19982;-84
2021/12/29 18:24:42;;;;;;;;;;;20.50;43.70;;;;;;3899993;22;19938;-84
2021/12/29 18:26:14;;;;;;;;;;;20.60;43.70;;;;;;3897830;22;19915;-85
2021/12/29 18:27:45;;;;;;;;;;;20.60;43.80;;;;;;3900830;22;20288;-85
2021/12/29 18:29:17;;;;;;;;;;;20.50;43.70;;;;;;3899862;22;19978;-85
2021/12/29 18:30:49;;;;;;;;;;;20.60;43.70;;;;;;3897109;22;19915;-85
2021/12/29 18:32:21;;;;;;;;;;;20.50;43.70;;;;;;3900574;22;19922;-85
2021/12/29 18:33:53;;;;;;;;;;;20.60;43.70;;;;;;3898944;22;19923;-85
2021/12/29 18:35:25;;;;;;;;;;;20.60;43.70;;;;;;3900041;22;19915;-85
2021/12/29 18:36:58;;;;;;;;;;;20.60;43.70;;;;;;3899933;22;19963;-85
2021/12/29 18:38:29;;;;;;;;;;;20.50;43.70;;;;;;3900171;22;19969;-84
2021/12/29 18:40:01;;;;;;;;;;;20.50;43.70;;;;;;3899662;22;20292;-85
2021/12/29 18:41:33;;;;;;;;;;;20.50;43.70;;;;;;3899442;22;20320;-84
2021/12/29 18:43:05;;;;;;;;;;;20.60;43.70;;;;;;3900395;22;19915;-86
2021/12/29 18:44:37;;;;;;;;;;;20.60;43.80;;;;;;3898927;22;19942;-84
2021/12/29 18:46:08;;;;;;;;;;;20.60;43.80;;;;;;3899116;22;19990;-84
2021/12/29 18:47:40;;;;;;;;;;;20.50;43.70;;;;;;3900834;22;20372;-85
2021/12/29 18:49:12;;;;;;;;;;;20.50;43.70;;;;;;3898785;22;19991;-84
2021/12/29 18:50:44;;;;;;;;;;;20.60;43.80;;;;;;3884733;22;20295;-86
2021/12/29 18:52:17;;;;;;;;;;;20.50;43.70;;;;;;3899186;22;19953;-85
2021/12/29 18:53:49;;;;;;;;;;;20.50;43.70;;;;;;3900567;22;19922;-85
2021/12/29 18:55:20;;;;;;;;;;;20.60;43.80;;;;;;3898925;22;19903;-85
2021/12/29 18:56:54;;;;;;;;;;;20.60;43.70;;;;;;3899697;22;19926;-85
2021/12/29 18:58:26;;;;;;;;;;;20.60;43.80;;;;;;3900033;22;19916;-85
2021/12/29 18:59:58;;;;;;;;;;;20.60;43.80;;;;;;3898005;22;20376;-85
2021/12/29 19:01:29;;;;;;;;;;;20.60;43.70;;;;;;3899369;22;19937;-85
2021/12/29 19:03:01;;;;;;;;;;;20.50;43.70;;;;;;3900228;22;19938;-85
2021/12/29 19:04:33;;;;;;;;;;;20.60;43.80;;;;;;3900075;22;19915;-84
2021/12/29 19:06:05;;;;;;;;;;;20.50;43.70;;;;;;3900101;22;20367;-85
2021/12/29 19:07:38;;;;;;;;;;;20.60;43.80;;;;;;3899201;22;20179;-86
2021/12/29 19:09:10;;;;;;;;;;;20.50;43.70;;;;;;3900985;22;19952;-85
2021/12/29 19:10:42;;;;;;;;;;;20.50;43.70;;;;;;3896598;22;19939;-84
2021/12/29 19:12:13;;;;;;;;;;;20.60;43.80;;;;;;3899630;22;19996;-85
2021/12/29 19:13:45;;;;;;;;;;;20.60;43.80;;;;;;3898515;22;19915;-86
2021/12/29 19:15:17;;;;;;;;;;;20.60;43.80;;;;;;3896829;22;19968;-84
2021/12/29 19:16:49;;;;;;;;;;;20.60;43.80;;;;;;3900466;22;20215;-85
2021/12/29 19:18:21;;;;;;;;;;;20.50;43.70;;;;;;3898089;22;19915;-85
2021/12/29 19:19:53;;;;;;;;;;;20.60;43.80;;;;;;3899857;22;19990;-85
2021/12/29 19:21:25;;;;;;;;;;;20.50;43.70;;;;;;3897734;22;19921;-85
2021/12/29 19:22:58;;;;;;;;;;;20.50;43.70;;;;;;3898880;22;19915;-85
2021/12/29 19:24:29;;;;;;;;;;;20.60;44.40;;;;;;3899747;22;19919;-85
2021/12/29 19:26:01;;;;;;;;;;;20.50;43.70;;;;;;3896796;22;19916;-85
2021/12/29 19:27:33;;;;;;;;;;;20.50;43.70;;;;;;3900236;22;19922;-86
2021/12/29 19:29:08;;;;;;;;;;;20.60;43.80;;;;;;3898555;22;19937;-84
2021/12/29 19:30:40;;;;;;;;;;;20.50;43.80;;;;;;3897758;22;19919;-85
2021/12/29 19:32:11;;;;;;;;;;;20.50;43.80;;;;;;3899602;22;19915;-84
2021/12/29 19:33:43;;;;;;;;;;;20.50;43.80;;;;;;3898007;22;19914;-85
2021/12/29 19:35:14;;;;;;;;;;;20.50;43.80;;;;;;3899141;22;19915;-84
2021/12/29 19:36:46;;;;;;;;;;;20.50;43.70;;;;;;3897460;22;19922;-85
2021/12/29 19:38:19;;;;;;;;;;;20.60;43.80;;;;;;3899635;22;19946;-84
2021/12/29 19:39:51;;;;;;;;;;;20.60;43.80;;;;;;3898438;22;19915;-85
2021/12/29 19:41:23;;;;;;;;;;;20.60;43.80;;;;;;3898095;22;19915;-85
2021/12/29 19:42:54;;;;;;;;;;;20.50;43.80;;;;;;3900287;22;19944;-86
2021/12/29 19:44:26;;;;;;;;;;;20.60;43.80;;;;;;3898268;22;19964;-85
2021/12/29 19:45:58;;;;;;;;;;;20.50;43.70;;;;;;3898109;22;19915;-84
2021/12/29 19:47:30;;;;;;;;;;;20.60;43.80;;;;;;3898610;22;19937;-84
2021/12/29 19:49:05;;;;;;;;;;;20.50;43.70;;;;;;3899240;22;19941;-85
2021/12/29 19:50:38;;;;;;;;;;;20.60;43.80;;;;;;3900112;22;20373;-85
2021/12/29 19:52:15;;;;;;;;;;;20.60;43.80;;;;;;3897909;22;19953;-85
2021/12/29 19:53:48;;;;;;;;;;;20.60;43.80;;;;;;3899737;22;19922;-85
2021/12/29 19:55:19;;;;;;;;;;;20.60;43.80;;;;;;3898685;22;19955;-85
2021/12/29 19:56:52;;;;;;;;;;;20.60;43.80;;;;;;3898634;22;19915;-84
2021/12/29 19:58:23;;;;;;;;;;;20.60;43.80;;;;;;3900042;22;19923;-86
2021/12/29 19:59:55;;;;;;;;;;;20.60;43.80;;;;;;3897023;22;19915;-85
2021/12/29 20:01:27;;;;;;;;;;;20.60;43.80;;;;;;3898278;22;20227;-85
2021/12/29 20:02:58;;;;;;;;;;;20.60;43.80;;;;;;3898174;22;19915;-85